sensor_id;sensor_type;location;lat;lon;timestamp;pressure;altitude;pressure_sealevel;temperature;humidity
61014;BME280;46899;47.542;19.082;2023-09-07T00:02:32;101139.44;;;15.64;100.00
61014;BME280;46899;47.542;19.082;2023-09-07T00:05:42;101138.66;;;15.62;100.00
61014;BME280;46899;47.542;19.082;2023-09-07T00:08:44;101144.06;;;15.59;100.00
61014;BME280;46899;47.542;19.082;2023-09-07T00:11:47;101143.88;;;15.63;100.00
61014;BME280;46899;47.542;19.082;2023-09-07T00:14:50;101147.28;;;15.65;100.00
61014;BME280;46899;47.542;19.082;2023-09-07T00:17:53;101146.81;;;15.56;100.00
61014;BME280;46899;47.542;19.082;2023-09-07T00:20:55;101147.06;;;15.50;100.00
61014;BME280;46899;47.542;19.082;2023-09-07T00:23:58;101150.72;;;15.46;100.00
61014;BME280;46899;47.542;19.082;2023-09-07T00:27:01;101150.69;;;15.47;100.00
61014;BME280;46899;47.542;19.082;2023-09-07T00:30:04;101147.38;;;15.42;100.00
61014;BME280;46899;47.542;19.082;2023-09-07T00:33:07;101139.75;;;15.36;100.00
61014;BME280;46899;47.542;19.082;2023-09-07T00:36:10;101140.59;;;15.37;100.00
61014;BME280;46899;47.542;19.082;2023-09-07T00:39:12;101147.38;;;15.42;100.00
61014;BME280;46899;47.542;19.082;2023-09-07T00:42:15;101142.44;;;15.35;100.00
61014;BME280;46899;47.542;19.082;2023-09-07T00:45:18;101143.66;;;15.26;100.00
61014;BME280;46899;47.542;19.082;2023-09-07T00:48:21;101144.91;;;15.18;100.00
61014;BME280;46899;47.542;19.082;2023-09-07T00:51:24;101140.72;;;15.14;100.00
61014;BME280;46899;47.542;19.082;2023-09-07T00:54:27;101139.13;;;15.10;100.00
61014;BME280;46899;47.542;19.082;2023-09-07T00:57:30;101138.47;;;15.04;100.00
61014;BME280;46899;47.542;19.082;2023-09-07T01:00:33;101136.84;;;15.00;100.00
61014;BME280;46899;47.542;19.082;2023-09-07T01:03:36;101135.28;;;14.96;100.00
61014;BME280;46899;47.542;19.082;2023-09-07T01:06:40;101139.81;;;14.93;100.00
61014;BME280;46899;47.542;19.082;2023-09-07T01:09:51;101137.22;;;14.91;100.00
61014;BME280;46899;47.542;19.082;2023-09-07T01:12:55;101139.31;;;14.83;100.00
61014;BME280;46899;47.542;19.082;2023-09-07T01:15:57;101138.53;;;14.81;100.00
61014;BME280;46899;47.542;19.082;2023-09-07T01:19:01;101136.88;;;14.79;100.00
61014;BME280;46899;47.542;19.082;2023-09-07T01:22:03;101138.75;;;14.75;100.00
61014;BME280;46899;47.542;19.082;2023-09-07T01:25:06;101137.12;;;14.73;100.00
61014;BME280;46899;47.542;19.082;2023-09-07T01:28:09;101141.63;;;14.69;100.00
61014;BME280;46899;47.542;19.082;2023-09-07T01:31:12;101133.00;;;14.67;100.00
61014;BME280;46899;47.542;19.082;2023-09-07T01:34:14;101134.94;;;14.62;100.00
61014;BME280;46899;47.542;19.082;2023-09-07T01:37:17;101134.19;;;14.59;100.00
61014;BME280;46899;47.542;19.082;2023-09-07T01:40:19;101136.09;;;14.55;100.00
61014;BME280;46899;47.542;19.082;2023-09-07T01:43:22;101132.78;;;14.50;100.00
61014;BME280;46899;47.542;19.082;2023-09-07T01:46:25;101128.44;;;14.49;100.00
61014;BME280;46899;47.542;19.082;2023-09-07T01:49:28;101139.00;;;14.48;100.00
61014;BME280;46899;47.542;19.082;2023-09-07T01:52:31;101136.41;;;14.46;100.00
61014;BME280;46899;47.542;19.082;2023-09-07T01:55:34;101141.72;;;14.45;100.00
61014;BME280;46899;47.542;19.082;2023-09-07T01:58:37;101133.84;;;14.45;100.00
61014;BME280;46899;47.542;19.082;2023-09-07T02:01:40;101135.88;;;14.38;100.00
61014;BME280;46899;47.542;19.082;2023-09-07T02:04:43;101140.34;;;14.34;100.00
61014;BME280;46899;47.542;19.082;2023-09-07T02:07:48;101141.22;;;14.35;100.00
61014;BME280;46899;47.542;19.082;2023-09-07T02:10:52;101141.31;;;14.32;100.00
61014;BME280;46899;47.542;19.082;2023-09-07T02:13:55;101147.41;;;14.32;100.00
61014;BME280;46899;47.542;19.082;2023-09-07T02:16:58;101147.56;;;14.28;100.00
61014;BME280;46899;47.542;19.082;2023-09-07T02:20:00;101148.47;;;14.27;100.00
61014;BME280;46899;47.542;19.082;2023-09-07T02:23:03;101145.03;;;14.25;100.00
61014;BME280;46899;47.542;19.082;2023-09-07T02:26:06;101147.78;;;14.22;100.00
61014;BME280;46899;47.542;19.082;2023-09-07T02:29:09;101148.69;;;14.21;100.00
61014;BME280;46899;47.542;19.082;2023-09-07T02:32:12;101146.88;;;14.23;100.00
61014;BME280;46899;47.542;19.082;2023-09-07T02:35:15;101145.34;;;14.17;100.00
61014;BME280;46899;47.542;19.082;2023-09-07T02:38:17;101144.69;;;14.11;100.00
61014;BME280;46899;47.542;19.082;2023-09-07T02:41:20;101147.56;;;14.05;100.00
61014;BME280;46899;47.542;19.082;2023-09-07T02:44:23;101152.06;;;14.01;100.00
61014;BME280;46899;47.542;19.082;2023-09-07T02:47:25;101150.56;;;13.94;100.00
61014;BME280;46899;47.542;19.082;2023-09-07T02:50:29;101155.94;;;13.90;100.00
61014;BME280;46899;47.542;19.082;2023-09-07T02:53:32;101151.69;;;13.87;100.00
61014;BME280;46899;47.542;19.082;2023-09-07T02:56:35;101151.75;;;13.86;100.00
61014;BME280;46899;47.542;19.082;2023-09-07T02:59:38;101148.44;;;13.81;100.00
61014;BME280;46899;47.542;19.082;2023-09-07T03:02:41;101157.28;;;13.77;100.00
61014;BME280;46899;47.542;19.082;2023-09-07T03:05:44;101157.41;;;13.73;100.00
61014;BME280;46899;47.542;19.082;2023-09-07T03:08:47;101153.09;;;13.73;100.00
61014;BME280;46899;47.542;19.082;2023-09-07T03:11:51;101153.19;;;13.69;100.00
61014;BME280;46899;47.542;19.082;2023-09-07T03:14:53;101161.25;;;13.63;100.00
61014;BME280;46899;47.542;19.082;2023-09-07T03:17:56;101153.59;;;13.57;100.00
61014;BME280;46899;47.542;19.082;2023-09-07T03:20:59;101154.53;;;13.56;100.00
61014;BME280;46899;47.542;19.082;2023-09-07T03:24:02;101161.44;;;13.57;100.00
61014;BME280;46899;47.542;19.082;2023-09-07T03:27:06;101158.03;;;13.55;100.00
61014;BME280;46899;47.542;19.082;2023-09-07T03:30:09;101157.25;;;13.53;100.00
61014;BME280;46899;47.542;19.082;2023-09-07T03:33:12;101156.44;;;13.51;100.00
61014;BME280;46899;47.542;19.082;2023-09-07T03:36:15;101155.59;;;13.51;100.00
61014;BME280;46899;47.542;19.082;2023-09-07T03:39:18;101159.16;;;13.48;100.00
61014;BME280;46899;47.542;19.082;2023-09-07T03:42:22;101167.97;;;13.46;100.00
61014;BME280;46899;47.542;19.082;2023-09-07T03:45:24;101167.09;;;13.45;100.00
61014;BME280;46899;47.542;19.082;2023-09-07T03:48:27;101163.84;;;13.39;100.00
61014;BME280;46899;47.542;19.082;2023-09-07T03:51:31;101168.19;;;13.40;100.00
61014;BME280;46899;47.542;19.082;2023-09-07T03:54:33;101170.88;;;13.37;100.00
61014;BME280;46899;47.542;19.082;2023-09-07T03:57:37;101163.13;;;13.34;100.00
61014;BME280;46899;47.542;19.082;2023-09-07T04:00:40;101157.97;;;13.32;100.00
61014;BME280;46899;47.542;19.082;2023-09-07T04:03:43;101168.34;;;13.35;100.00
61014;BME280;46899;47.542;19.082;2023-09-07T04:06:46;101164.78;;;13.36;100.00
61014;BME280;46899;47.542;19.082;2023-09-07T04:09:50;101166.59;;;13.34;100.00
61014;BME280;46899;47.542;19.082;2023-09-07T04:12:53;101170.25;;;13.30;100.00
61014;BME280;46899;47.542;19.082;2023-09-07T04:15:56;101165.91;;;13.29;100.00
61014;BME280;46899;47.542;19.082;2023-09-07T04:18:58;101176.28;;;13.31;100.00
61014;BME280;46899;47.542;19.082;2023-09-07T04:22:01;101179.75;;;13.31;100.00
61014;BME280;46899;47.542;19.082;2023-09-07T04:25:05;101175.25;;;13.36;100.00
61014;BME280;46899;47.542;19.082;2023-09-07T04:28:08;101179.53;;;13.39;100.00
61014;BME280;46899;47.542;19.082;2023-09-07T04:31:11;101182.06;;;13.40;100.00
61014;BME280;46899;47.542;19.082;2023-09-07T04:34:14;101175.72;;;13.47;100.00
61014;BME280;46899;47.542;19.082;2023-09-07T04:37:17;101181.66;;;13.52;100.00
61014;BME280;46899;47.542;19.082;2023-09-07T04:40:19;101188.63;;;13.53;100.00
61014;BME280;46899;47.542;19.082;2023-09-07T04:43:22;101193.69;;;13.58;100.00
61014;BME280;46899;47.542;19.082;2023-09-07T04:46:25;101185.75;;;13.61;100.00
61014;BME280;46899;47.542;19.082;2023-09-07T04:49:28;101185.63;;;13.64;100.00
61014;BME280;46899;47.542;19.082;2023-09-07T04:52:31;101189.00;;;13.67;100.00
61014;BME280;46899;47.542;19.082;2023-09-07T04:55:36;101179.25;;;13.73;100.00
61014;BME280;46899;47.542;19.082;2023-09-07T04:58:39;101182.59;;;13.76;100.00
61014;BME280;46899;47.542;19.082;2023-09-07T05:01:42;101190.28;;;13.81;100.00
61014;BME280;46899;47.542;19.082;2023-09-07T05:04:45;101185.72;;;13.87;100.00
61014;BME280;46899;47.542;19.082;2023-09-07T05:07:48;101193.16;;;13.98;100.00
61014;BME280;46899;47.542;19.082;2023-09-07T05:10:57;101196.91;;;14.15;100.00
61014;BME280;46899;47.542;19.082;2023-09-07T05:14:00;101192.28;;;14.22;100.00
61014;BME280;46899;47.542;19.082;2023-09-07T05:17:04;101200.63;;;14.33;100.00
61014;BME280;46899;47.542;19.082;2023-09-07T05:20:07;101207.25;;;14.43;100.00
61014;BME280;46899;47.542;19.082;2023-09-07T05:23:12;101206.78;;;14.55;100.00
61014;BME280;46899;47.542;19.082;2023-09-07T05:26:20;101210.72;;;14.67;100.00
61014;BME280;46899;47.542;19.082;2023-09-07T05:29:23;101204.25;;;14.75;100.00
61014;BME280;46899;47.542;19.082;2023-09-07T05:32:25;101200.38;;;14.85;100.00
61014;BME280;46899;47.542;19.082;2023-09-07T05:35:30;101207.78;;;14.97;100.00
61014;BME280;46899;47.542;19.082;2023-09-07T05:38:34;101209.09;;;15.07;100.00
61014;BME280;46899;47.542;19.082;2023-09-07T05:41:38;101205.75;;;15.26;100.00
61014;BME280;46899;47.542;19.082;2023-09-07T05:44:41;101211.00;;;15.47;100.00
61014;BME280;46899;47.542;19.082;2023-09-07T05:47:44;101209.84;;;15.74;100.00
61014;BME280;46899;47.542;19.082;2023-09-07T05:50:47;101214.25;;;15.94;100.00
61014;BME280;46899;47.542;19.082;2023-09-07T05:53:51;101213.69;;;16.26;100.00
61014;BME280;46899;47.542;19.082;2023-09-07T05:56:53;101214.44;;;16.49;100.00
61014;BME280;46899;47.542;19.082;2023-09-07T05:59:56;101219.44;;;16.73;99.00
61014;BME280;46899;47.542;19.082;2023-09-07T06:02:59;101216.09;;;17.07;95.01
61014;BME280;46899;47.542;19.082;2023-09-07T06:06:02;101223.31;;;17.56;91.96
61014;BME280;46899;47.542;19.082;2023-09-07T06:09:05;101229.69;;;18.69;86.47
61014;BME280;46899;47.542;19.082;2023-09-07T06:12:07;101235.66;;;20.67;72.40
61014;BME280;46899;47.542;19.082;2023-09-07T06:15:10;101237.78;;;23.20;63.04
61014;BME280;46899;47.542;19.082;2023-09-07T06:18:13;101239.00;;;25.62;51.94
61014;BME280;46899;47.542;19.082;2023-09-07T06:21:16;101247.44;;;25.67;50.38
61014;BME280;46899;47.542;19.082;2023-09-07T06:24:20;101245.69;;;24.92;52.12
61014;BME280;46899;47.542;19.082;2023-09-07T06:27:23;101237.69;;;23.45;55.64
61014;BME280;46899;47.542;19.082;2023-09-07T06:30:26;101247.16;;;22.51;60.26
61014;BME280;46899;47.542;19.082;2023-09-07T06:33:29;101245.97;;;22.55;59.22
61014;BME280;46899;47.542;19.082;2023-09-07T06:36:32;101242.69;;;22.64;59.43
61014;BME280;46899;47.542;19.082;2023-09-07T06:39:50;101245.62;;;22.09;61.99
61014;BME280;46899;47.542;19.082;2023-09-07T06:42:53;101246.84;;;21.39;65.16
61014;BME280;46899;47.542;19.082;2023-09-07T06:46:02;101236.50;;;20.67;67.70
61014;BME280;46899;47.542;19.082;2023-09-07T06:49:05;101243.37;;;21.25;66.69
61014;BME280;46899;47.542;19.082;2023-09-07T06:52:08;101239.97;;;21.10;67.91
61014;BME280;46899;47.542;19.082;2023-09-07T06:55:11;101242.25;;;20.74;68.97
61014;BME280;46899;47.542;19.082;2023-09-07T06:58:14;101238.41;;;20.37;71.93
61014;BME280;46899;47.542;19.082;2023-09-07T07:01:17;101240.53;;;20.30;72.49
61014;BME280;46899;47.542;19.082;2023-09-07T07:04:19;101247.72;;;20.42;70.77
61014;BME280;46899;47.542;19.082;2023-09-07T07:07:23;101239.28;;;20.92;69.82
61014;BME280;46899;47.542;19.082;2023-09-07T07:10:25;101248.91;;;23.48;60.10
61014;BME280;46899;47.542;19.082;2023-09-07T07:13:28;101257.53;;;29.67;42.00
61014;BME280;46899;47.542;19.082;2023-09-07T07:16:32;101265.66;;;33.96;32.12
61014;BME280;46899;47.542;19.082;2023-09-07T07:19:35;101269.31;;;35.77;28.44
61014;BME280;46899;47.542;19.082;2023-09-07T07:22:37;101274.37;;;36.01;27.76
61014;BME280;46899;47.542;19.082;2023-09-07T07:25:40;101272.09;;;33.72;30.73
61014;BME280;46899;47.542;19.082;2023-09-07T07:28:43;101268.81;;;36.44;27.90
61014;BME280;46899;47.542;19.082;2023-09-07T07:31:46;101271.81;;;38.74;24.14
61014;BME280;46899;47.542;19.082;2023-09-07T07:34:50;101273.84;;;38.85;23.69
61014;BME280;46899;47.542;19.082;2023-09-07T07:37:53;101270.34;;;37.41;25.31
61014;BME280;46899;47.542;19.082;2023-09-07T07:40:56;101265.66;;;33.96;30.18
61014;BME280;46899;47.542;19.082;2023-09-07T07:43:59;101264.03;;;34.39;29.61
61014;BME280;46899;47.542;19.082;2023-09-07T07:47:02;101262.28;;;35.04;28.38
61014;BME280;46899;47.542;19.082;2023-09-07T07:50:05;101262.31;;;33.18;31.68
61014;BME280;46899;47.542;19.082;2023-09-07T07:53:08;101254.69;;;29.51;37.12
61014;BME280;46899;47.542;19.082;2023-09-07T07:56:16;101258.31;;;27.38;42.88
61014;BME280;46899;47.542;19.082;2023-09-07T07:59:20;101247.56;;;27.19;44.40
61014;BME280;46899;47.542;19.082;2023-09-07T08:02:23;101245.62;;;26.51;46.83
61014;BME280;46899;47.542;19.082;2023-09-07T08:05:26;101250.41;;;26.47;46.76
61014;BME280;46899;47.542;19.082;2023-09-07T08:08:29;101242.69;;;27.43;44.67
61014;BME280;46899;47.542;19.082;2023-09-07T08:11:33;101245.97;;;27.06;45.08
61014;BME280;46899;47.542;19.082;2023-09-07T08:14:35;101247.88;;;26.85;45.83
61014;BME280;46899;47.542;19.082;2023-09-07T08:17:38;101241.34;;;26.38;46.95
61014;BME280;46899;47.542;19.082;2023-09-07T08:20:42;101251.00;;;26.09;48.39
61014;BME280;46899;47.542;19.082;2023-09-07T08:23:45;101236.91;;;25.23;49.59
61014;BME280;46899;47.542;19.082;2023-09-07T08:26:48;101230.19;;;24.97;52.03
61014;BME280;46899;47.542;19.082;2023-09-07T08:29:54;101239.19;;;24.85;52.23
61014;BME280;46899;47.542;19.082;2023-09-07T08:32:56;101234.22;;;24.47;53.25
61014;BME280;46899;47.542;19.082;2023-09-07T08:35:59;101228.25;;;24.21;56.09
61014;BME280;46899;47.542;19.082;2023-09-07T08:39:04;101224.28;;;24.38;54.73
61014;BME280;46899;47.542;19.082;2023-09-07T08:42:12;101227.53;;;24.64;53.44
61014;BME280;46899;47.542;19.082;2023-09-07T08:45:14;101222.47;;;24.49;54.01
61014;BME280;46899;47.542;19.082;2023-09-07T08:48:19;101211.94;;;24.59;54.04
61014;BME280;46899;47.542;19.082;2023-09-07T08:51:23;101210.41;;;24.79;51.12
61014;BME280;46899;47.542;19.082;2023-09-07T08:54:26;101212.31;;;24.43;52.17
61014;BME280;46899;47.542;19.082;2023-09-07T08:57:29;101208.56;;;24.46;52.87
61014;BME280;46899;47.542;19.082;2023-09-07T09:00:32;101198.75;;;24.69;51.06
61014;BME280;46899;47.542;19.082;2023-09-07T09:03:35;101208.88;;;25.08;49.54
61014;BME280;46899;47.542;19.082;2023-09-07T09:06:38;101205.50;;;25.06;49.27
61014;BME280;46899;47.542;19.082;2023-09-07T09:09:41;101205.41;;;25.28;50.32
61014;BME280;46899;47.542;19.082;2023-09-07T09:12:46;101206.66;;;25.24;48.69
61014;BME280;46899;47.542;19.082;2023-09-07T09:15:49;101202.28;;;25.23;48.41
61014;BME280;46899;47.542;19.082;2023-09-07T09:18:56;101198.38;;;25.38;49.16
61014;BME280;46899;47.542;19.082;2023-09-07T09:21:59;101199.75;;;25.53;47.41
61014;BME280;46899;47.542;19.082;2023-09-07T09:25:02;101199.31;;;25.37;45.67
61014;BME280;46899;47.542;19.082;2023-09-07T09:28:08;101189.37;;;25.39;45.75
61014;BME280;46899;47.542;19.082;2023-09-07T09:31:11;101194.00;;;25.48;46.59
61014;BME280;46899;47.542;19.082;2023-09-07T09:34:17;101189.31;;;25.61;44.11
61014;BME280;46899;47.542;19.082;2023-09-07T09:37:20;101190.03;;;25.63;44.41
61014;BME280;46899;47.542;19.082;2023-09-07T09:40:23;101191.78;;;25.53;43.63
61014;BME280;46899;47.542;19.082;2023-09-07T09:43:26;101190.50;;;25.68;44.10
61014;BME280;46899;47.542;19.082;2023-09-07T09:46:28;101199.94;;;25.93;43.74
61014;BME280;46899;47.542;19.082;2023-09-07T09:49:34;101193.75;;;26.13;41.41
61014;BME280;46899;47.542;19.082;2023-09-07T09:52:37;101188.19;;;26.05;39.91
61014;BME280;46899;47.542;19.082;2023-09-07T09:55:40;101189.87;;;26.06;39.91
61014;BME280;46899;47.542;19.082;2023-09-07T09:58:43;101185.69;;;26.34;40.69
61014;BME280;46899;47.542;19.082;2023-09-07T10:01:47;101186.63;;;26.54;39.98
61014;BME280;46899;47.542;19.082;2023-09-07T10:04:53;101183.63;;;26.77;40.25
61014;BME280;46899;47.542;19.082;2023-09-07T10:07:59;101188.50;;;26.72;39.74
61014;BME280;46899;47.542;19.082;2023-09-07T10:11:07;101174.44;;;26.70;38.76
61014;BME280;46899;47.542;19.082;2023-09-07T10:14:10;101177.62;;;27.04;38.24
61014;BME280;46899;47.542;19.082;2023-09-07T10:17:21;101173.13;;;27.24;37.76
61014;BME280;46899;47.542;19.082;2023-09-07T10:20:24;101176.41;;;27.27;37.87
61014;BME280;46899;47.542;19.082;2023-09-07T10:23:41;101176.13;;;27.40;37.89
61014;BME280;46899;47.542;19.082;2023-09-07T10:26:45;101177.78;;;27.31;37.77
61014;BME280;46899;47.542;19.082;2023-09-07T10:29:57;101174.12;;;27.61;37.60
61014;BME280;46899;47.542;19.082;2023-09-07T10:33:00;101171.31;;;27.72;37.47
61014;BME280;46899;47.542;19.082;2023-09-07T10:36:03;101174.94;;;27.90;37.15
61014;BME280;46899;47.542;19.082;2023-09-07T10:39:06;101173.94;;;27.91;37.17
61014;BME280;46899;47.542;19.082;2023-09-07T10:42:21;101164.84;;;27.65;36.08
61014;BME280;46899;47.542;19.082;2023-09-07T10:45:25;101163.75;;;27.58;36.68
61014;BME280;46899;47.542;19.082;2023-09-07T10:48:30;101149.37;;;27.59;35.77
61014;BME280;46899;47.542;19.082;2023-09-07T10:51:33;101151.97;;;27.97;35.49
61014;BME280;46899;47.542;19.082;2023-09-07T10:54:42;101153.78;;;28.06;36.29
61014;BME280;46899;47.542;19.082;2023-09-07T10:57:46;101152.53;;;28.37;35.54
61014;BME280;46899;47.542;19.082;2023-09-07T11:00:52;101149.88;;;28.37;34.26
61014;BME280;46899;47.542;19.082;2023-09-07T11:03:54;101139.03;;;28.29;35.11
61014;BME280;46899;47.542;19.082;2023-09-07T11:06:57;101147.47;;;28.34;35.00
61014;BME280;46899;47.542;19.082;2023-09-07T11:10:00;101141.81;;;28.37;35.05
61014;BME280;46899;47.542;19.082;2023-09-07T11:13:03;101143.09;;;28.33;35.27
61014;BME280;46899;47.542;19.082;2023-09-07T11:16:07;101131.00;;;28.66;34.39
61014;BME280;46899;47.542;19.082;2023-09-07T11:19:10;101128.34;;;28.57;34.89
61014;BME280;46899;47.542;19.082;2023-09-07T11:22:13;101127.53;;;28.19;34.71
61014;BME280;46899;47.542;19.082;2023-09-07T11:25:16;101133.00;;;28.27;35.13
61014;BME280;46899;47.542;19.082;2023-09-07T11:28:18;101128.47;;;28.55;34.46
61014;BME280;46899;47.542;19.082;2023-09-07T11:31:21;101132.53;;;28.69;33.86
61014;BME280;46899;47.542;19.082;2023-09-07T11:34:24;101123.88;;;28.48;34.04
61014;BME280;46899;47.542;19.082;2023-09-07T11:37:27;101116.75;;;28.66;34.17
61014;BME280;46899;47.542;19.082;2023-09-07T11:40:30;101112.06;;;28.68;34.51
61014;BME280;46899;47.542;19.082;2023-09-07T11:43:33;101117.31;;;28.87;34.76
61014;BME280;46899;47.542;19.082;2023-09-07T11:46:36;101112.25;;;28.29;34.07
61014;BME280;46899;47.542;19.082;2023-09-07T11:49:39;101107.81;;;28.48;35.33
61014;BME280;46899;47.542;19.082;2023-09-07T11:52:42;101113.44;;;28.72;34.34
61014;BME280;46899;47.542;19.082;2023-09-07T11:55:45;101105.00;;;28.67;33.72
61014;BME280;46899;47.542;19.082;2023-09-07T11:58:48;101104.03;;;28.68;33.81
61014;BME280;46899;47.542;19.082;2023-09-07T12:01:51;101100.44;;;28.77;32.76
61014;BME280;46899;47.542;19.082;2023-09-07T12:04:54;101106.66;;;28.77;33.86
61014;BME280;46899;47.542;19.082;2023-09-07T12:07:57;101104.13;;;28.93;32.69
61014;BME280;46899;47.542;19.082;2023-09-07T12:10:59;101098.31;;;28.53;34.15
61014;BME280;46899;47.542;19.082;2023-09-07T12:14:02;101089.97;;;28.56;34.32
61014;BME280;46899;47.542;19.082;2023-09-07T12:17:06;101094.63;;;28.64;34.05
61014;BME280;46899;47.542;19.082;2023-09-07T12:20:09;101087.59;;;28.53;34.03
61014;BME280;46899;47.542;19.082;2023-09-07T12:23:13;101090.41;;;28.61;33.86
61014;BME280;46899;47.542;19.082;2023-09-07T12:26:16;101086.09;;;28.23;34.12
61014;BME280;46899;47.542;19.082;2023-09-07T12:29:23;101084.97;;;28.26;34.64
61014;BME280;46899;47.542;19.082;2023-09-07T12:32:26;101084.97;;;28.43;34.93
61014;BME280;46899;47.542;19.082;2023-09-07T12:35:29;101089.94;;;28.38;34.09
61014;BME280;46899;47.542;19.082;2023-09-07T12:38:31;101085.94;;;28.52;32.78
61014;BME280;46899;47.542;19.082;2023-09-07T12:41:34;101083.69;;;28.75;32.75
61014;BME280;46899;47.542;19.082;2023-09-07T12:44:37;101076.34;;;28.59;31.82
61014;BME280;46899;47.542;19.082;2023-09-07T12:47:40;101078.84;;;28.61;33.55
61014;BME280;46899;47.542;19.082;2023-09-07T12:50:42;101072.28;;;28.45;33.01
61014;BME280;46899;47.542;19.082;2023-09-07T12:53:45;101072.78;;;28.59;32.48
61014;BME280;46899;47.542;19.082;2023-09-07T12:56:48;101068.56;;;28.56;34.13
61014;BME280;46899;47.542;19.082;2023-09-07T12:59:51;101068.06;;;28.43;34.35
61014;BME280;46899;47.542;19.082;2023-09-07T13:02:53;101059.91;;;28.44;33.70
61014;BME280;46899;47.542;19.082;2023-09-07T13:05:56;101056.94;;;28.48;33.05
61014;BME280;46899;47.542;19.082;2023-09-07T13:08:59;101058.31;;;28.24;33.99
61014;BME280;46899;47.542;19.082;2023-09-07T13:12:02;101055.84;;;28.13;34.50
61014;BME280;46899;47.542;19.082;2023-09-07T13:15:05;101049.19;;;28.17;34.42
61014;BME280;46899;47.542;19.082;2023-09-07T13:18:07;101054.16;;;28.39;34.74
61014;BME280;46899;47.542;19.082;2023-09-07T13:21:10;101049.59;;;28.22;33.58
61014;BME280;46899;47.542;19.082;2023-09-07T13:24:12;101058.38;;;28.15;34.00
61014;BME280;46899;47.542;19.082;2023-09-07T13:27:15;101057.56;;;28.32;33.18
61014;BME280;46899;47.542;19.082;2023-09-07T13:30:19;101046.78;;;28.24;33.48
61014;BME280;46899;47.542;19.082;2023-09-07T13:33:22;101051.38;;;28.31;33.89
61014;BME280;46899;47.542;19.082;2023-09-07T13:36:24;101039.09;;;28.11;33.74
61014;BME280;46899;47.542;19.082;2023-09-07T13:39:27;101047.72;;;28.05;33.93
61014;BME280;46899;47.542;19.082;2023-09-07T13:42:30;101035.00;;;28.17;34.66
61014;BME280;46899;47.542;19.082;2023-09-07T13:45:32;101036.66;;;28.18;33.81
61014;BME280;46899;47.542;19.082;2023-09-07T13:48:35;101041.22;;;27.98;33.85
61014;BME280;46899;47.542;19.082;2023-09-07T13:51:39;101036.72;;;28.08;33.92
61014;BME280;46899;47.542;19.082;2023-09-07T13:54:42;101044.84;;;28.16;33.74
61014;BME280;46899;47.542;19.082;2023-09-07T13:57:44;101037.72;;;28.07;32.84
61014;BME280;46899;47.542;19.082;2023-09-07T14:00:47;101034.28;;;28.15;33.26
61014;BME280;46899;47.542;19.082;2023-09-07T14:03:50;101027.00;;;28.07;33.75
61014;BME280;46899;47.542;19.082;2023-09-07T14:06:53;101023.94;;;28.02;33.07
61014;BME280;46899;47.542;19.082;2023-09-07T14:09:55;101020.37;;;28.11;34.14
61014;BME280;46899;47.542;19.082;2023-09-07T14:12:58;101030.47;;;28.17;32.64
61014;BME280;46899;47.542;19.082;2023-09-07T14:16:01;101021.53;;;28.26;32.68
61014;BME280;46899;47.542;19.082;2023-09-07T14:19:04;101021.94;;;28.04;32.38
61014;BME280;46899;47.542;19.082;2023-09-07T14:22:07;101028.88;;;27.97;33.49
61014;BME280;46899;47.542;19.082;2023-09-07T14:25:09;101025.34;;;27.97;32.38
61014;BME280;46899;47.542;19.082;2023-09-07T14:28:12;101014.19;;;27.74;32.75
61014;BME280;46899;47.542;19.082;2023-09-07T14:31:14;101021.91;;;27.77;33.00
61014;BME280;46899;47.542;19.082;2023-09-07T14:34:17;101018.12;;;27.70;32.65
61014;BME280;46899;47.542;19.082;2023-09-07T14:37:19;101012.41;;;27.65;32.06
61014;BME280;46899;47.542;19.082;2023-09-07T14:40:22;101014.66;;;27.60;32.18
61014;BME280;46899;47.542;19.082;2023-09-07T14:43:26;101008.22;;;27.53;31.91
61014;BME280;46899;47.542;19.082;2023-09-07T14:46:29;101012.28;;;27.57;32.56
61014;BME280;46899;47.542;19.082;2023-09-07T14:49:31;101005.50;;;27.62;33.41
61014;BME280;46899;47.542;19.082;2023-09-07T14:52:34;101004.44;;;27.36;33.16
61014;BME280;46899;47.542;19.082;2023-09-07T14:55:43;101001.09;;;27.44;33.20
61014;BME280;46899;47.542;19.082;2023-09-07T14:58:46;101003.75;;;27.44;32.19
61014;BME280;46899;47.542;19.082;2023-09-07T15:01:49;101005.12;;;27.48;32.15
61014;BME280;46899;47.542;19.082;2023-09-07T15:05:04;101009.13;;;27.25;32.75
61014;BME280;46899;47.542;19.082;2023-09-07T15:08:07;101006.87;;;27.20;31.21
61014;BME280;46899;47.542;19.082;2023-09-07T15:11:09;101000.53;;;27.21;31.04
61014;BME280;46899;47.542;19.082;2023-09-07T15:14:14;101005.03;;;27.21;31.61
61014;BME280;46899;47.542;19.082;2023-09-07T15:17:17;101003.22;;;27.11;30.78
61014;BME280;46899;47.542;19.082;2023-09-07T15:20:20;101003.66;;;27.07;31.73
61014;BME280;46899;47.542;19.082;2023-09-07T15:23:23;101004.09;;;26.93;30.95
61014;BME280;46899;47.542;19.082;2023-09-07T15:26:25;101006.22;;;26.89;31.15
61014;BME280;46899;47.542;19.082;2023-09-07T15:29:28;100999.87;;;26.90;31.11
61014;BME280;46899;47.542;19.082;2023-09-07T15:32:31;100996.09;;;26.83;31.76
61014;BME280;46899;47.542;19.082;2023-09-07T15:35:34;100997.78;;;26.84;32.21
61014;BME280;46899;47.542;19.082;2023-09-07T15:38:37;100997.22;;;26.81;32.47
61014;BME280;46899;47.542;19.082;2023-09-07T15:41:40;100992.16;;;26.68;32.38